Portada
METAR-TAF:

METAR-TAF

Aeroports :

Taubaté, São Paulo, Brasil

latitud: 23-02-26S, longitud: 45-31-00W, altitud: 577 m

Observació

L'informe es va fer fa 1 hora i 13 minuts, a les 22:00 UTC
Vent 2 kt del Nord/Nord-Est
Temperatura 21°C
Humitat 60%
Pressió 1015 hPa
Visibilitat 10 km o més
sense núvols per sota de 1500 mi sense presència de cumulonimbus.

METAR: SBTA 122200Z 02002KT CAVOK 21/13 Q1015

Hora: 20:13 (23:13 UTC)


TAF: manca

Observacions i pronòstics meteorològics de més de 4000 aeroports (METAR i TAF).

Les estacions disponibles són els punts grocs i vermells al mapa.

Posi el ratolí al punt desitjat per veure el nom de l'estació.

Feu clic per veure les observacions i els pronòstics meteorològics.

Per canviar el mapa: feu clic els botons verds amb una creu de color negre per apropar; al botó verd amb un guió per allunyar la imatge; o en les fletxes verdes per a mapes adjacents.


METAR-TAF: